sensor_id;sensor_type;location;lat;lon;timestamp;temperature;humidity
18721;DHT22;9489;50.948;3.114;2023-01-01T00:01:41;15.00;99.90
18721;DHT22;9489;50.948;3.114;2023-01-01T00:04:11;15.00;99.90
18721;DHT22;9489;50.948;3.114;2023-01-01T00:06:37;15.00;99.90
18721;DHT22;9489;50.948;3.114;2023-01-01T00:09:02;15.00;99.90
18721;DHT22;9489;50.948;3.114;2023-01-01T00:11:47;15.00;99.90
18721;DHT22;9489;50.948;3.114;2023-01-01T00:14:12;14.90;99.90
18721;DHT22;9489;50.948;3.114;2023-01-01T00:16:38;14.90;99.90
18721;DHT22;9489;50.948;3.114;2023-01-01T00:19:03;14.80;99.90
18721;DHT22;9489;50.948;3.114;2023-01-01T00:21:29;14.80;99.90
18721;DHT22;9489;50.948;3.114;2023-01-01T00:23:55;14.80;99.90
18721;DHT22;9489;50.948;3.114;2023-01-01T00:26:20;14.80;99.90
18721;DHT22;9489;50.948;3.114;2023-01-01T00:28:46;14.80;99.90
18721;DHT22;9489;50.948;3.114;2023-01-01T00:31:17;14.70;99.90
18721;DHT22;9489;50.948;3.114;2023-01-01T00:33:44;14.70;99.90
18721;DHT22;9489;50.948;3.114;2023-01-01T00:36:15;14.70;99.90
18721;DHT22;9489;50.948;3.114;2023-01-01T00:38:42;14.70;99.90
18721;DHT22;9489;50.948;3.114;2023-01-01T00:41:09;14.60;99.90
18721;DHT22;9489;50.948;3.114;2023-01-01T00:43:34;14.50;99.90
18721;DHT22;9489;50.948;3.114;2023-01-01T00:46:00;14.50;99.90
18721;DHT22;9489;50.948;3.114;2023-01-01T00:48:26;14.50;99.90
18721;DHT22;9489;50.948;3.114;2023-01-01T00:50:52;14.50;99.90
18721;DHT22;9489;50.948;3.114;2023-01-01T00:53:19;14.50;99.90
18721;DHT22;9489;50.948;3.114;2023-01-01T00:55:47;14.40;99.90
18721;DHT22;9489;50.948;3.114;2023-01-01T00:58:13;14.40;99.90
18721;DHT22;9489;50.948;3.114;2023-01-01T01:00:39;14.40;99.90
18721;DHT22;9489;50.948;3.114;2023-01-01T01:03:04;14.40;99.90
18721;DHT22;9489;50.948;3.114;2023-01-01T01:05:31;14.40;99.90
18721;DHT22;9489;50.948;3.114;2023-01-01T01:07:57;14.40;99.90
18721;DHT22;9489;50.948;3.114;2023-01-01T01:10:23;14.50;99.90
18721;DHT22;9489;50.948;3.114;2023-01-01T01:12:51;14.50;99.90
18721;DHT22;9489;50.948;3.114;2023-01-01T01:15:17;14.50;99.90
18721;DHT22;9489;50.948;3.114;2023-01-01T01:17:42;14.50;99.90
18721;DHT22;9489;50.948;3.114;2023-01-01T01:20:08;14.50;99.90
18721;DHT22;9489;50.948;3.114;2023-01-01T01:22:34;14.50;99.90
18721;DHT22;9489;50.948;3.114;2023-01-01T01:25:00;14.50;99.90
18721;DHT22;9489;50.948;3.114;2023-01-01T01:27:26;14.50;99.90
18721;DHT22;9489;50.948;3.114;2023-01-01T01:29:52;14.50;99.90
18721;DHT22;9489;50.948;3.114;2023-01-01T01:32:18;14.60;99.90
18721;DHT22;9489;50.948;3.114;2023-01-01T01:34:44;14.50;99.90
18721;DHT22;9489;50.948;3.114;2023-01-01T01:37:10;14.60;99.90
18721;DHT22;9489;50.948;3.114;2023-01-01T01:39:36;14.60;99.90
18721;DHT22;9489;50.948;3.114;2023-01-01T01:42:02;14.60;99.90
18721;DHT22;9489;50.948;3.114;2023-01-01T01:47:27;14.60;99.90
18721;DHT22;9489;50.948;3.114;2023-01-01T01:52:29;14.70;99.90
18721;DHT22;9489;50.948;3.114;2023-01-01T01:54:57;14.60;99.90
18721;DHT22;9489;50.948;3.114;2023-01-01T01:57:24;14.70;99.90
18721;DHT22;9489;50.948;3.114;2023-01-01T01:59:52;14.60;99.90
18721;DHT22;9489;50.948;3.114;2023-01-01T02:02:36;14.60;99.90
18721;DHT22;9489;50.948;3.114;2023-01-01T02:05:03;14.60;99.90
18721;DHT22;9489;50.948;3.114;2023-01-01T02:07:31;14.60;99.90
18721;DHT22;9489;50.948;3.114;2023-01-01T02:09:59;14.60;99.90
18721;DHT22;9489;50.948;3.114;2023-01-01T02:12:26;14.60;99.90
18721;DHT22;9489;50.948;3.114;2023-01-01T02:14:52;14.60;99.90
18721;DHT22;9489;50.948;3.114;2023-01-01T02:17:34;14.60;99.90
18721;DHT22;9489;50.948;3.114;2023-01-01T02:20:15;14.70;99.90
18721;DHT22;9489;50.948;3.114;2023-01-01T02:25:54;14.70;99.90
18721;DHT22;9489;50.948;3.114;2023-01-01T02:28:49;14.70;99.90
18721;DHT22;9489;50.948;3.114;2023-01-01T02:31:22;14.60;99.90
18721;DHT22;9489;50.948;3.114;2023-01-01T02:33:50;14.60;99.90
18721;DHT22;9489;50.948;3.114;2023-01-01T02:36:18;14.60;99.90
18721;DHT22;9489;50.948;3.114;2023-01-01T02:38:50;14.60;99.90
18721;DHT22;9489;50.948;3.114;2023-01-01T02:43:47;14.60;99.90
18721;DHT22;9489;50.948;3.114;2023-01-01T02:46:12;14.60;99.90
18721;DHT22;9489;50.948;3.114;2023-01-01T03:14:41;14.60;99.90
18721;DHT22;9489;50.948;3.114;2023-01-01T03:19:42;14.60;99.90
18721;DHT22;9489;50.948;3.114;2023-01-01T03:22:14;14.70;99.90
18721;DHT22;9489;50.948;3.114;2023-01-01T03:24:42;14.70;99.90
18721;DHT22;9489;50.948;3.114;2023-01-01T03:27:38;14.60;99.90
18721;DHT22;9489;50.948;3.114;2023-01-01T03:30:08;14.60;99.90
18721;DHT22;9489;50.948;3.114;2023-01-01T03:32:40;14.60;99.90
18721;DHT22;9489;50.948;3.114;2023-01-01T03:35:29;14.60;99.90
18721;DHT22;9489;50.948;3.114;2023-01-01T03:37:57;14.50;99.90
18721;DHT22;9489;50.948;3.114;2023-01-01T03:40:24;14.40;99.90
18721;DHT22;9489;50.948;3.114;2023-01-01T03:42:54;14.20;99.90
18721;DHT22;9489;50.948;3.114;2023-01-01T03:45:25;13.80;99.90
18721;DHT22;9489;50.948;3.114;2023-01-01T03:47:53;13.30;99.90
18721;DHT22;9489;50.948;3.114;2023-01-01T03:50:21;13.00;99.90
18721;DHT22;9489;50.948;3.114;2023-01-01T03:55:40;12.60;99.90
18721;DHT22;9489;50.948;3.114;2023-01-01T03:58:19;12.50;99.90
18721;DHT22;9489;50.948;3.114;2023-01-01T04:00:54;12.50;99.90
18721;DHT22;9489;50.948;3.114;2023-01-01T04:03:24;12.40;99.90
18721;DHT22;9489;50.948;3.114;2023-01-01T04:05:51;12.40;99.90
18721;DHT22;9489;50.948;3.114;2023-01-01T04:08:17;12.40;99.90
18721;DHT22;9489;50.948;3.114;2023-01-01T04:10:50;12.30;99.90
18721;DHT22;9489;50.948;3.114;2023-01-01T04:13:17;12.30;99.90
18721;DHT22;9489;50.948;3.114;2023-01-01T04:15:43;12.30;99.90
18721;DHT22;9489;50.948;3.114;2023-01-01T04:18:08;12.20;99.90
18721;DHT22;9489;50.948;3.114;2023-01-01T04:20:34;12.10;99.90
18721;DHT22;9489;50.948;3.114;2023-01-01T04:23:01;12.10;99.90
18721;DHT22;9489;50.948;3.114;2023-01-01T04:25:27;12.10;99.90
18721;DHT22;9489;50.948;3.114;2023-01-01T04:27:53;12.10;99.90
18721;DHT22;9489;50.948;3.114;2023-01-01T04:30:19;12.10;99.90
18721;DHT22;9489;50.948;3.114;2023-01-01T04:32:44;12.10;99.90
18721;DHT22;9489;50.948;3.114;2023-01-01T04:35:12;12.10;99.90
18721;DHT22;9489;50.948;3.114;2023-01-01T04:37:42;12.10;99.90
18721;DHT22;9489;50.948;3.114;2023-01-01T04:40:09;12.10;99.90
18721;DHT22;9489;50.948;3.114;2023-01-01T04:42:35;12.00;99.90
18721;DHT22;9489;50.948;3.114;2023-01-01T04:45:01;12.10;99.90
18721;DHT22;9489;50.948;3.114;2023-01-01T04:47:27;12.10;99.90
18721;DHT22;9489;50.948;3.114;2023-01-01T04:49:54;12.10;99.90
18721;DHT22;9489;50.948;3.114;2023-01-01T04:52:20;12.10;99.90
18721;DHT22;9489;50.948;3.114;2023-01-01T04:54:46;12.10;99.90
18721;DHT22;9489;50.948;3.114;2023-01-01T04:57:11;12.20;99.90
18721;DHT22;9489;50.948;3.114;2023-01-01T04:59:37;12.10;99.90
18721;DHT22;9489;50.948;3.114;2023-01-01T05:02:03;12.10;99.90
18721;DHT22;9489;50.948;3.114;2023-01-01T05:04:28;12.20;99.90
18721;DHT22;9489;50.948;3.114;2023-01-01T05:06:54;12.20;99.90
18721;DHT22;9489;50.948;3.114;2023-01-01T05:09:20;12.20;99.90
18721;DHT22;9489;50.948;3.114;2023-01-01T05:11:46;12.20;99.90
18721;DHT22;9489;50.948;3.114;2023-01-01T05:14:12;12.20;99.90
18721;DHT22;9489;50.948;3.114;2023-01-01T05:16:38;12.20;99.90
18721;DHT22;9489;50.948;3.114;2023-01-01T05:19:05;12.20;99.90
18721;DHT22;9489;50.948;3.114;2023-01-01T05:21:34;12.20;99.90
18721;DHT22;9489;50.948;3.114;2023-01-01T05:24:02;12.20;99.90
18721;DHT22;9489;50.948;3.114;2023-01-01T05:26:30;12.30;99.90
18721;DHT22;9489;50.948;3.114;2023-01-01T05:28:56;12.30;99.90
18721;DHT22;9489;50.948;3.114;2023-01-01T05:31:24;12.40;99.90
18721;DHT22;9489;50.948;3.114;2023-01-01T05:33:50;12.40;99.90
18721;DHT22;9489;50.948;3.114;2023-01-01T05:36:23;12.40;99.90
18721;DHT22;9489;50.948;3.114;2023-01-01T05:38:51;12.40;99.90
18721;DHT22;9489;50.948;3.114;2023-01-01T05:41:18;12.40;99.90
18721;DHT22;9489;50.948;3.114;2023-01-01T05:43:44;12.40;99.90
18721;DHT22;9489;50.948;3.114;2023-01-01T05:46:12;12.50;99.90
18721;DHT22;9489;50.948;3.114;2023-01-01T05:48:38;12.40;99.90
18721;DHT22;9489;50.948;3.114;2023-01-01T05:51:09;12.40;99.90
18721;DHT22;9489;50.948;3.114;2023-01-01T05:53:35;12.50;99.90
18721;DHT22;9489;50.948;3.114;2023-01-01T05:56:01;12.50;99.90
18721;DHT22;9489;50.948;3.114;2023-01-01T05:58:28;12.50;99.90
18721;DHT22;9489;50.948;3.114;2023-01-01T06:00:54;12.50;99.90
18721;DHT22;9489;50.948;3.114;2023-01-01T06:03:20;12.50;99.90
18721;DHT22;9489;50.948;3.114;2023-01-01T06:05:46;12.50;99.90
18721;DHT22;9489;50.948;3.114;2023-01-01T06:08:12;12.50;99.90
18721;DHT22;9489;50.948;3.114;2023-01-01T06:10:38;12.50;99.90
18721;DHT22;9489;50.948;3.114;2023-01-01T06:13:03;12.50;99.90
18721;DHT22;9489;50.948;3.114;2023-01-01T06:15:29;12.40;99.90
18721;DHT22;9489;50.948;3.114;2023-01-01T06:17:56;12.40;99.90
18721;DHT22;9489;50.948;3.114;2023-01-01T06:20:22;12.40;99.90
18721;DHT22;9489;50.948;3.114;2023-01-01T06:22:48;12.40;99.90
18721;DHT22;9489;50.948;3.114;2023-01-01T06:25:13;12.40;99.90
18721;DHT22;9489;50.948;3.114;2023-01-01T06:27:39;12.30;99.90
18721;DHT22;9489;50.948;3.114;2023-01-01T06:30:05;12.30;99.90
18721;DHT22;9489;50.948;3.114;2023-01-01T06:32:32;12.20;99.90
18721;DHT22;9489;50.948;3.114;2023-01-01T06:34:58;12.20;99.90
18721;DHT22;9489;50.948;3.114;2023-01-01T06:37:23;12.20;99.90
18721;DHT22;9489;50.948;3.114;2023-01-01T06:39:49;12.20;99.90
18721;DHT22;9489;50.948;3.114;2023-01-01T06:42:15;12.10;99.90
18721;DHT22;9489;50.948;3.114;2023-01-01T06:44:40;12.10;99.90
18721;DHT22;9489;50.948;3.114;2023-01-01T06:47:06;12.00;99.90
18721;DHT22;9489;50.948;3.114;2023-01-01T06:49:32;11.90;99.90
18721;DHT22;9489;50.948;3.114;2023-01-01T06:51:57;11.80;99.90
18721;DHT22;9489;50.948;3.114;2023-01-01T06:54:23;11.80;99.90
18721;DHT22;9489;50.948;3.114;2023-01-01T06:56:49;11.70;99.90
18721;DHT22;9489;50.948;3.114;2023-01-01T06:59:17;11.70;99.90
18721;DHT22;9489;50.948;3.114;2023-01-01T07:01:43;11.70;99.90
18721;DHT22;9489;50.948;3.114;2023-01-01T07:04:14;11.60;99.90
18721;DHT22;9489;50.948;3.114;2023-01-01T07:06:40;11.60;99.90
18721;DHT22;9489;50.948;3.114;2023-01-01T07:09:06;11.60;99.90
18721;DHT22;9489;50.948;3.114;2023-01-01T07:11:32;11.60;99.90
18721;DHT22;9489;50.948;3.114;2023-01-01T07:13:58;11.60;99.90
18721;DHT22;9489;50.948;3.114;2023-01-01T07:16:24;11.60;99.90
18721;DHT22;9489;50.948;3.114;2023-01-01T07:18:50;11.60;99.90
18721;DHT22;9489;50.948;3.114;2023-01-01T07:21:31;11.60;99.90
18721;DHT22;9489;50.948;3.114;2023-01-01T07:24:02;11.60;99.90
18721;DHT22;9489;50.948;3.114;2023-01-01T07:26:29;11.60;99.90
18721;DHT22;9489;50.948;3.114;2023-01-01T07:28:55;11.60;99.90
18721;DHT22;9489;50.948;3.114;2023-01-01T07:31:21;11.60;99.90
18721;DHT22;9489;50.948;3.114;2023-01-01T07:33:47;11.70;99.90
18721;DHT22;9489;50.948;3.114;2023-01-01T07:36:13;11.70;99.90
18721;DHT22;9489;50.948;3.114;2023-01-01T07:38:39;11.70;99.90
18721;DHT22;9489;50.948;3.114;2023-01-01T07:41:04;11.70;99.90
18721;DHT22;9489;50.948;3.114;2023-01-01T07:43:30;11.80;99.90
18721;DHT22;9489;50.948;3.114;2023-01-01T07:45:57;11.90;99.90
18721;DHT22;9489;50.948;3.114;2023-01-01T07:48:23;12.00;99.90
18721;DHT22;9489;50.948;3.114;2023-01-01T07:50:49;12.00;99.90
18721;DHT22;9489;50.948;3.114;2023-01-01T07:53:15;12.00;99.90
18721;DHT22;9489;50.948;3.114;2023-01-01T07:55:41;12.00;99.90
18721;DHT22;9489;50.948;3.114;2023-01-01T07:58:07;12.00;99.90
18721;DHT22;9489;50.948;3.114;2023-01-01T08:00:33;12.00;99.90
18721;DHT22;9489;50.948;3.114;2023-01-01T08:02:58;12.00;99.90
18721;DHT22;9489;50.948;3.114;2023-01-01T08:05:24;12.00;99.90
18721;DHT22;9489;50.948;3.114;2023-01-01T08:07:50;11.90;99.90
18721;DHT22;9489;50.948;3.114;2023-01-01T08:10:17;11.90;99.90
18721;DHT22;9489;50.948;3.114;2023-01-01T08:12:44;11.90;99.90
18721;DHT22;9489;50.948;3.114;2023-01-01T08:15:13;11.90;99.90
18721;DHT22;9489;50.948;3.114;2023-01-01T08:17:39;12.00;99.90
18721;DHT22;9489;50.948;3.114;2023-01-01T08:20:05;12.00;99.90
18721;DHT22;9489;50.948;3.114;2023-01-01T08:22:31;12.00;99.90
18721;DHT22;9489;50.948;3.114;2023-01-01T08:24:57;12.00;99.90
18721;DHT22;9489;50.948;3.114;2023-01-01T08:27:22;12.00;99.90
18721;DHT22;9489;50.948;3.114;2023-01-01T08:29:48;12.10;99.90
18721;DHT22;9489;50.948;3.114;2023-01-01T08:32:14;12.10;99.90
18721;DHT22;9489;50.948;3.114;2023-01-01T08:34:39;12.00;99.90
18721;DHT22;9489;50.948;3.114;2023-01-01T08:37:08;12.10;99.90
18721;DHT22;9489;50.948;3.114;2023-01-01T08:39:35;12.20;99.90
18721;DHT22;9489;50.948;3.114;2023-01-01T08:42:01;12.20;99.90
18721;DHT22;9489;50.948;3.114;2023-01-01T08:44:27;12.20;99.90
18721;DHT22;9489;50.948;3.114;2023-01-01T08:46:52;12.20;99.90
18721;DHT22;9489;50.948;3.114;2023-01-01T08:49:18;12.20;99.90
18721;DHT22;9489;50.948;3.114;2023-01-01T08:51:43;12.20;99.90
18721;DHT22;9489;50.948;3.114;2023-01-01T08:54:09;12.20;99.90
18721;DHT22;9489;50.948;3.114;2023-01-01T08:56:35;12.20;99.90
18721;DHT22;9489;50.948;3.114;2023-01-01T08:59:02;12.30;99.90
18721;DHT22;9489;50.948;3.114;2023-01-01T09:01:28;12.30;99.90
18721;DHT22;9489;50.948;3.114;2023-01-01T09:03:54;12.30;99.90
18721;DHT22;9489;50.948;3.114;2023-01-01T09:06:19;12.30;99.90
18721;DHT22;9489;50.948;3.114;2023-01-01T09:08:45;12.40;99.90
18721;DHT22;9489;50.948;3.114;2023-01-01T09:11:26;12.30;99.90
18721;DHT22;9489;50.948;3.114;2023-01-01T09:13:52;12.30;99.90
18721;DHT22;9489;50.948;3.114;2023-01-01T09:16:19;12.40;99.90
18721;DHT22;9489;50.948;3.114;2023-01-01T09:18:44;12.40;99.90
18721;DHT22;9489;50.948;3.114;2023-01-01T09:21:10;12.40;99.90
18721;DHT22;9489;50.948;3.114;2023-01-01T09:23:36;12.40;99.90
18721;DHT22;9489;50.948;3.114;2023-01-01T09:26:06;12.40;99.90
18721;DHT22;9489;50.948;3.114;2023-01-01T09:28:33;12.40;99.90
18721;DHT22;9489;50.948;3.114;2023-01-01T09:30:59;12.50;99.90
18721;DHT22;9489;50.948;3.114;2023-01-01T09:33:26;12.50;99.90
18721;DHT22;9489;50.948;3.114;2023-01-01T09:35:52;12.50;99.90
18721;DHT22;9489;50.948;3.114;2023-01-01T09:38:17;12.60;99.90
18721;DHT22;9489;50.948;3.114;2023-01-01T09:45:56;12.70;99.90
18721;DHT22;9489;50.948;3.114;2023-01-01T09:48:24;12.80;99.90
18721;DHT22;9489;50.948;3.114;2023-01-01T09:50:51;12.90;99.90
18721;DHT22;9489;50.948;3.114;2023-01-01T09:56:04;13.10;99.90
18721;DHT22;9489;50.948;3.114;2023-01-01T09:58:34;13.00;99.90
18721;DHT22;9489;50.948;3.114;2023-01-01T10:04:48;12.90;99.90
18721;DHT22;9489;50.948;3.114;2023-01-01T10:07:43;13.30;99.90
18721;DHT22;9489;50.948;3.114;2023-01-01T10:12:45;13.30;99.90
18721;DHT22;9489;50.948;3.114;2023-01-01T10:15:15;13.20;99.90
18721;DHT22;9489;50.948;3.114;2023-01-01T10:17:47;13.40;99.90
18721;DHT22;9489;50.948;3.114;2023-01-01T10:22:47;13.40;99.90
18721;DHT22;9489;50.948;3.114;2023-01-01T10:25:20;13.50;99.90
18721;DHT22;9489;50.948;3.114;2023-01-01T10:27:47;13.40;99.90
18721;DHT22;9489;50.948;3.114;2023-01-01T10:30:18;13.30;99.90
18721;DHT22;9489;50.948;3.114;2023-01-01T10:32:47;13.30;99.90
18721;DHT22;9489;50.948;3.114;2023-01-01T10:35:16;13.20;99.90
18721;DHT22;9489;50.948;3.114;2023-01-01T10:37:42;13.10;99.90
18721;DHT22;9489;50.948;3.114;2023-01-01T10:40:29;13.10;99.90
18721;DHT22;9489;50.948;3.114;2023-01-01T10:42:57;13.10;99.90
18721;DHT22;9489;50.948;3.114;2023-01-01T10:45:32;13.10;99.90
18721;DHT22;9489;50.948;3.114;2023-01-01T10:50:48;13.10;99.90
18721;DHT22;9489;50.948;3.114;2023-01-01T10:53:49;13.20;99.90
18721;DHT22;9489;50.948;3.114;2023-01-01T10:56:17;13.30;99.90
18721;DHT22;9489;50.948;3.114;2023-01-01T10:58:44;13.30;99.90
18721;DHT22;9489;50.948;3.114;2023-01-01T11:01:25;13.40;99.90
18721;DHT22;9489;50.948;3.114;2023-01-01T11:04:01;13.40;99.90
18721;DHT22;9489;50.948;3.114;2023-01-01T11:09:01;13.50;99.90
18721;DHT22;9489;50.948;3.114;2023-01-01T11:11:39;13.60;99.90
18721;DHT22;9489;50.948;3.114;2023-01-01T11:14:21;13.60;99.90
18721;DHT22;9489;50.948;3.114;2023-01-01T11:16:48;13.50;99.90
18721;DHT22;9489;50.948;3.114;2023-01-01T11:19:42;13.50;99.90
18721;DHT22;9489;50.948;3.114;2023-01-01T11:22:37;13.60;99.90
18721;DHT22;9489;50.948;3.114;2023-01-01T11:25:21;13.70;99.90
18721;DHT22;9489;50.948;3.114;2023-01-01T11:27:48;13.90;99.90
18721;DHT22;9489;50.948;3.114;2023-01-01T11:30:19;13.90;99.90
18721;DHT22;9489;50.948;3.114;2023-01-01T11:32:45;13.80;99.90
18721;DHT22;9489;50.948;3.114;2023-01-01T11:35:18;13.90;99.90
18721;DHT22;9489;50.948;3.114;2023-01-01T11:37:45;13.80;99.90
18721;DHT22;9489;50.948;3.114;2023-01-01T11:40:24;13.80;99.90
18721;DHT22;9489;50.948;3.114;2023-01-01T11:42:56;13.80;99.90
18721;DHT22;9489;50.948;3.114;2023-01-01T11:45:32;13.70;99.90
18721;DHT22;9489;50.948;3.114;2023-01-01T11:48:25;13.70;99.90
18721;DHT22;9489;50.948;3.114;2023-01-01T11:51:10;13.70;99.90
18721;DHT22;9489;50.948;3.114;2023-01-01T11:54:09;13.80;99.90
18721;DHT22;9489;50.948;3.114;2023-01-01T11:56:35;13.80;99.90
18721;DHT22;9489;50.948;3.114;2023-01-01T11:59:08;13.90;99.90
18721;DHT22;9489;50.948;3.114;2023-01-01T12:01:52;13.90;99.90
18721;DHT22;9489;50.948;3.114;2023-01-01T12:04:26;13.90;99.90
18721;DHT22;9489;50.948;3.114;2023-01-01T12:07:05;13.90;99.90
18721;DHT22;9489;50.948;3.114;2023-01-01T12:12:32;13.90;99.90
18721;DHT22;9489;50.948;3.114;2023-01-01T12:17:38;13.80;99.90
18721;DHT22;9489;50.948;3.114;2023-01-01T12:20:25;13.80;99.90
18721;DHT22;9489;50.948;3.114;2023-01-01T12:22:54;13.70;99.90
18721;DHT22;9489;50.948;3.114;2023-01-01T12:25:20;13.70;99.90
18721;DHT22;9489;50.948;3.114;2023-01-01T12:30:23;13.60;99.90
18721;DHT22;9489;50.948;3.114;2023-01-01T12:43:59;13.60;99.90
18721;DHT22;9489;50.948;3.114;2023-01-01T12:46:44;13.70;99.90
18721;DHT22;9489;50.948;3.114;2023-01-01T12:49:37;13.80;99.90
18721;DHT22;9489;50.948;3.114;2023-01-01T12:52:19;13.90;99.90
18721;DHT22;9489;50.948;3.114;2023-01-01T13:00:23;13.90;99.90
18721;DHT22;9489;50.948;3.114;2023-01-01T13:02:53;13.80;99.90
18721;DHT22;9489;50.948;3.114;2023-01-01T13:05:24;13.90;99.90
18721;DHT22;9489;50.948;3.114;2023-01-01T13:07:59;14.00;99.90
18721;DHT22;9489;50.948;3.114;2023-01-01T13:10:28;14.00;99.90
18721;DHT22;9489;50.948;3.114;2023-01-01T13:12:56;14.00;99.90
18721;DHT22;9489;50.948;3.114;2023-01-01T13:18:06;14.00;99.90
18721;DHT22;9489;50.948;3.114;2023-01-01T13:20:34;13.90;99.90
18721;DHT22;9489;50.948;3.114;2023-01-01T13:23:01;13.90;99.90
18721;DHT22;9489;50.948;3.114;2023-01-01T13:25:26;13.80;99.90
18721;DHT22;9489;50.948;3.114;2023-01-01T13:41:43;13.60;99.90
18721;DHT22;9489;50.948;3.114;2023-01-01T13:44:22;13.50;99.90
18721;DHT22;9489;50.948;3.114;2023-01-01T13:59:53;13.50;99.90
18721;DHT22;9489;50.948;3.114;2023-01-01T14:07:43;13.60;99.90
18721;DHT22;9489;50.948;3.114;2023-01-01T14:12:44;13.50;99.90
18721;DHT22;9489;50.948;3.114;2023-01-01T14:17:50;13.50;99.90
18721;DHT22;9489;50.948;3.114;2023-01-01T14:20:18;13.40;99.90
18721;DHT22;9489;50.948;3.114;2023-01-01T14:22:45;13.40;99.90
18721;DHT22;9489;50.948;3.114;2023-01-01T14:25:25;13.40;99.90
18721;DHT22;9489;50.948;3.114;2023-01-01T14:27:53;13.40;99.90
18721;DHT22;9489;50.948;3.114;2023-01-01T14:30:19;13.40;99.90
18721;DHT22;9489;50.948;3.114;2023-01-01T14:32:47;13.30;99.90
18721;DHT22;9489;50.948;3.114;2023-01-01T14:35:19;13.40;99.90
18721;DHT22;9489;50.948;3.114;2023-01-01T14:37:44;13.30;99.90
18721;DHT22;9489;50.948;3.114;2023-01-01T14:40:23;13.30;99.90
18721;DHT22;9489;50.948;3.114;2023-01-01T14:43:00;13.30;99.90
18721;DHT22;9489;50.948;3.114;2023-01-01T14:45:29;13.20;99.90
18721;DHT22;9489;50.948;3.114;2023-01-01T14:47:55;13.20;99.90
18721;DHT22;9489;50.948;3.114;2023-01-01T14:50:25;13.20;99.90
18721;DHT22;9489;50.948;3.114;2023-01-01T14:52:55;13.20;99.90
18721;DHT22;9489;50.948;3.114;2023-01-01T14:55:25;13.20;99.90
18721;DHT22;9489;50.948;3.114;2023-01-01T14:57:57;13.20;99.90
18721;DHT22;9489;50.948;3.114;2023-01-01T15:00:27;13.20;99.90
18721;DHT22;9489;50.948;3.114;2023-01-01T15:02:52;13.20;99.90
18721;DHT22;9489;50.948;3.114;2023-01-01T15:05:29;13.20;99.90
18721;DHT22;9489;50.948;3.114;2023-01-01T15:08:00;13.20;99.90
18721;DHT22;9489;50.948;3.114;2023-01-01T15:10:37;13.20;99.90
18721;DHT22;9489;50.948;3.114;2023-01-01T15:13:05;13.10;99.90
18721;DHT22;9489;50.948;3.114;2023-01-01T15:15:44;13.10;99.90
18721;DHT22;9489;50.948;3.114;2023-01-01T15:18:39;13.10;99.90
18721;DHT22;9489;50.948;3.114;2023-01-01T15:21:12;13.10;99.90
18721;DHT22;9489;50.948;3.114;2023-01-01T15:23:49;13.00;99.90
18721;DHT22;9489;50.948;3.114;2023-01-01T15:27:13;13.00;99.90
18721;DHT22;9489;50.948;3.114;2023-01-01T15:29:14;13.00;99.90
18721;DHT22;9489;50.948;3.114;2023-01-01T15:31:48;12.90;99.90
18721;DHT22;9489;50.948;3.114;2023-01-01T15:34:23;12.80;99.90
18721;DHT22;9489;50.948;3.114;2023-01-01T15:36:50;12.80;99.90
18721;DHT22;9489;50.948;3.114;2023-01-01T15:39:16;12.80;99.90
18721;DHT22;9489;50.948;3.114;2023-01-01T15:41:48;12.70;99.90
18721;DHT22;9489;50.948;3.114;2023-01-01T15:44:24;12.70;99.90
18721;DHT22;9489;50.948;3.114;2023-01-01T15:46:51;12.60;99.90
18721;DHT22;9489;50.948;3.114;2023-01-01T15:49:25;12.60;99.90
18721;DHT22;9489;50.948;3.114;2023-01-01T15:51:55;12.50;99.90
18721;DHT22;9489;50.948;3.114;2023-01-01T15:54:22;12.50;99.90
18721;DHT22;9489;50.948;3.114;2023-01-01T15:56:48;12.40;99.90
18721;DHT22;9489;50.948;3.114;2023-01-01T15:59:25;12.30;99.90
18721;DHT22;9489;50.948;3.114;2023-01-01T16:01:51;12.20;99.90
18721;DHT22;9489;50.948;3.114;2023-01-01T16:04:26;12.20;99.90
18721;DHT22;9489;50.948;3.114;2023-01-01T16:06:54;12.20;99.90
18721;DHT22;9489;50.948;3.114;2023-01-01T16:09:21;12.10;99.90
18721;DHT22;9489;50.948;3.114;2023-01-01T16:11:55;12.10;99.90
18721;DHT22;9489;50.948;3.114;2023-01-01T16:14:21;12.00;99.90
18721;DHT22;9489;50.948;3.114;2023-01-01T16:16:55;12.00;99.90
18721;DHT22;9489;50.948;3.114;2023-01-01T16:19:23;12.00;99.90
18721;DHT22;9489;50.948;3.114;2023-01-01T16:21:48;11.90;99.90
18721;DHT22;9489;50.948;3.114;2023-01-01T16:24:16;11.90;99.90
18721;DHT22;9489;50.948;3.114;2023-01-01T16:26:42;11.90;99.90
18721;DHT22;9489;50.948;3.114;2023-01-01T16:29:08;11.80;99.90
18721;DHT22;9489;50.948;3.114;2023-01-01T16:31:34;11.80;99.90
18721;DHT22;9489;50.948;3.114;2023-01-01T16:34:00;11.80;99.90
18721;DHT22;9489;50.948;3.114;2023-01-01T16:36:26;11.80;99.90
18721;DHT22;9489;50.948;3.114;2023-01-01T16:38:54;11.80;99.90
18721;DHT22;9489;50.948;3.114;2023-01-01T16:41:20;11.70;99.90
18721;DHT22;9489;50.948;3.114;2023-01-01T16:43:46;11.80;99.90
18721;DHT22;9489;50.948;3.114;2023-01-01T16:46:12;11.70;99.90
18721;DHT22;9489;50.948;3.114;2023-01-01T16:48:39;11.70;99.90
18721;DHT22;9489;50.948;3.114;2023-01-01T16:51:05;11.80;99.90
18721;DHT22;9489;50.948;3.114;2023-01-01T16:53:31;11.80;99.90
18721;DHT22;9489;50.948;3.114;2023-01-01T16:55:57;11.70;99.90
18721;DHT22;9489;50.948;3.114;2023-01-01T16:58:23;11.70;99.90
18721;DHT22;9489;50.948;3.114;2023-01-01T17:00:49;11.70;99.90
18721;DHT22;9489;50.948;3.114;2023-01-01T17:03:22;11.70;99.90
18721;DHT22;9489;50.948;3.114;2023-01-01T17:05:48;11.70;99.90
18721;DHT22;9489;50.948;3.114;2023-01-01T17:08:13;11.70;99.90
18721;DHT22;9489;50.948;3.114;2023-01-01T17:10:39;11.70;99.90
18721;DHT22;9489;50.948;3.114;2023-01-01T17:13:04;11.60;99.90
18721;DHT22;9489;50.948;3.114;2023-01-01T17:15:31;11.60;99.90
18721;DHT22;9489;50.948;3.114;2023-01-01T17:17:57;11.60;99.90
18721;DHT22;9489;50.948;3.114;2023-01-01T17:20:23;11.50;99.90
18721;DHT22;9489;50.948;3.114;2023-01-01T17:22:49;11.50;99.90
18721;DHT22;9489;50.948;3.114;2023-01-01T17:25:15;11.60;99.90
18721;DHT22;9489;50.948;3.114;2023-01-01T17:27:41;11.50;99.90
18721;DHT22;9489;50.948;3.114;2023-01-01T17:30:07;11.50;99.90
18721;DHT22;9489;50.948;3.114;2023-01-01T17:32:33;11.50;99.90
18721;DHT22;9489;50.948;3.114;2023-01-01T17:35:00;11.50;99.90
18721;DHT22;9489;50.948;3.114;2023-01-01T17:37:25;11.50;99.90
18721;DHT22;9489;50.948;3.114;2023-01-01T17:39:51;11.50;99.90
18721;DHT22;9489;50.948;3.114;2023-01-01T17:42:16;11.50;99.90
18721;DHT22;9489;50.948;3.114;2023-01-01T17:44:42;11.50;99.90
18721;DHT22;9489;50.948;3.114;2023-01-01T17:47:08;11.50;99.90
18721;DHT22;9489;50.948;3.114;2023-01-01T17:49:33;11.50;99.90
18721;DHT22;9489;50.948;3.114;2023-01-01T17:51:59;11.50;99.90
18721;DHT22;9489;50.948;3.114;2023-01-01T17:54:24;11.50;99.90
18721;DHT22;9489;50.948;3.114;2023-01-01T17:56:50;11.50;99.90
18721;DHT22;9489;50.948;3.114;2023-01-01T17:59:16;11.50;99.90
18721;DHT22;9489;50.948;3.114;2023-01-01T18:01:42;11.50;99.90
18721;DHT22;9489;50.948;3.114;2023-01-01T18:04:09;11.50;99.90
18721;DHT22;9489;50.948;3.114;2023-01-01T18:06:37;11.40;99.90